Flight Track Log - Related Links

Times and Time Zones

All times are in EDT time to prevent confusion due to time zone crossing. See the N35079 flight status page for this flight to view local times or setup timezone preferences in your user account.

Time Position Orientation Groundspeed Altitude Reporting Facility
EDT Latitude Longitude Course Direction KTS MPH feet Rate Location/Type
Fri 05:09:15 PM 28.8250 -80.8925 347° North 114 131 7,500  Level Jacksonville Center
Fri 05:10:23 PM 28.8586 -80.9011 347° North 113 130 7,500  Level Jacksonville Center
Fri 05:11:24 PM 28.8858 -80.9125 340° North 110 127 7,500  Level Jacksonville Center
Fri 05:12:24 PM 28.9175 -80.9261 339° North 110 127 7,500  Level Jacksonville Center
Fri 05:13:31 PM 28.9489 -80.9422 336° Northwest 109 125 7,500  Level Jacksonville Center
Fri 05:14:32 PM 28.9783 -80.9533 342° North 112 129 7,500  Level Jacksonville Center
Fri 05:15:33 PM 29.0100 -80.9694 336° Northwest 113 130 7,500  Level Jacksonville Center
Fri 05:16:35 PM 29.0394 -80.9808 341° North 115 132 7,500  Level Jacksonville Center
Fri 05:17:35 PM 29.0689 -80.9969 334° Northwest 116 133 7,500  Level Jacksonville Center
Fri 05:18:30 PM 29.0981 -81.0081 342° North 116 133 7,500  Level Jacksonville Center
Fri 05:19:31 PM 29.1297 -81.0194 343° North 116 133 7,500  Level Jacksonville Center
Fri 05:20:26 PM 29.1569 -81.0283 344° North 118 136 7,500  Level Jacksonville Center
Fri 05:21:27 PM 29.1864 -81.0422 338° Northwest 115 132 7,500  Level Jacksonville Center
Fri 05:22:28 PM 29.2200 -81.0533 344° North 115 132 7,500  Level Jacksonville Center
Fri 05:23:29 PM 29.2492 -81.0647 341° North 117 135 7,500  Level Jacksonville Center
Fri 05:24:30 PM 29.2786 -81.0761 341° North 112 129 7,500  Level Jacksonville Center
Fri 05:25:31 PM 29.3081 -81.0897 338° Northwest 114 131 7,500  Level Jacksonville Center
Fri 05:26:38 PM 29.3417 -81.1058 337° Northwest 113 130 7,500  Level Jacksonville Center
Fri 05:27:39 PM 29.3711 -81.1172 341° North 114 131 7,500  Level Jacksonville Center
Fri 05:28:39 PM 29.4025 -81.1286 342° North 114 131 7,500  Level Jacksonville Center
Fri 05:29:34 PM 29.4278 -81.1400 339° North 111 128 7,500  Level Jacksonville Center
Fri 05:30:41 PM 29.4614 -81.1561 337° Northwest 108 124 7,500  Level Jacksonville Center
Fri 05:31:42 PM 29.4908 -81.1675 341° North 109 125 7,500  Level Jacksonville Center
Fri 05:32:37 PM 29.5158 -81.1767 342° North 112 129 7,500  Level Jacksonville Center
Fri 05:33:37 PM 29.5475 -81.1881 343° North 113 130 7,500  Level Jacksonville Center
Fri 05:34:51 PM 29.5831 -81.2017 342° North 111 128 7,500  Level Jacksonville Center
Fri 05:35:51 PM 29.6103 -81.2156 336° Northwest 112 129 7,500  Level Jacksonville Center
Fri 05:36:34 PM 29.6292 -81.2225 342° North 110 127 7,500  Level Jacksonville Center
Fri 05:37:35 PM 29.6628 -81.2339 344° North 110 127 7,500  Level Jacksonville Center
Fri 05:38:42 PM 29.6944 -81.2478 339° North 112 129 7,500  Level Jacksonville Center
Fri 05:39:14 PM 29.7089 -81.2547 337° Northwest 112 129 7,500  Level Jacksonville Center
Fri 05:39:39 PM 29.7194 -81.2592 340° North 113 130 7,500  Level Jacksonville Center
Fri 05:40:40 PM 29.7531 -81.2753 337° Northwest 114 131 7,500  Level Jacksonville Center
Fri 05:41:41 PM 29.7806 -81.2892 336° Northwest 111 128 7,500  Level Jacksonville Center
Fri 05:42:42 PM 29.8097 -81.3008 341° North 109 125 7,500  Level Jacksonville Center
Fri 05:43:43 PM 29.8392 -81.3122 341° North 114 131 7,500  Level Jacksonville Center
Fri 05:44:44 PM 29.8706 -81.3261 339° North 112 129 7,500 -49 Level Jacksonville Center
Fri 05:45:45 PM 29.9022 -81.3353 346° North 113 130 7,400 -295 Descending Jacksonville Center
Fri 05:46:46 PM 29.9336 -81.3514 336° Northwest 119 137 6,900 -537 Descending Jacksonville Center
Fri 05:47:48 PM 29.9650 -81.3533 357° North 117 135 6,300 -585 Descending Jacksonville Center
Fri 05:48:49 PM 29.9986 -81.3697 337° Northwest 121 139 5,700 -492 Descending Jacksonville Center
Fri 05:49:50 PM 30.0322 -81.3858 337° Northwest 130 150 5,300 -443 Descending Jacksonville Center
Fri 05:50:51 PM 30.0658 -81.4022 337° Northwest 131 151 4,800 -541 Descending Jacksonville Center
Fri 05:51:52 PM 30.0992 -81.4161 340° North 125 144 4,200 -656 Descending Jacksonville Center
Fri 05:52:59 PM 30.1350 -81.4394 331° Northwest 126 145 3,400 -787 Descending Jacksonville Center
Fri 05:53:54 PM 30.1644 -81.4558 334° Northwest 128 147 2,600 -828 Descending Jacksonville Center
Fri 05:54:55 PM 30.1919 -81.4794 323° Northwest 128 147 1,800 -541 Descending Jacksonville Center
Fri 05:55:56 PM 30.2253 -81.4911 343° North 123 142 1,500 -344 Descending Jacksonville Center
Fri 05:56:57 PM 30.2567 -81.4953 353° North 126 145 1,100 -295 Descending Jacksonville Center
Fri 05:57:58 PM 30.2922 -81.5019 351° North 127 146 900 -98 Descending Jacksonville Center
Fri 05:58:59 PM 30.3239 -81.5233 330° Northwest 117 135 900 -98 Level Jacksonville Center
Fri 06:00:00 PM 30.3492 -81.5422 327° Northwest 104 120 700 -85 Descending Jacksonville Center
Fri 06:01:00 PM 30.3383 -81.5133 113° Southeast  Level FlightAware Approximate
Fri 06:02:32 PM 30.3236 -81.5042 113° Southeast 75 86 600  Level Jacksonville Center
Fri 06:03:27 PM 30.3050 -81.5019 174° South 79 91 1,100 252 Climbing Jacksonville Center
Fri 06:06:54 PM 30.2194 -81.5081 184° South 90 104 1,700 227 Climbing Jacksonville Center
Fri 06:07:25 PM 30.2089 -81.5106 192° South 88 101 2,000 488 Climbing Jacksonville Center
Fri 06:08:20 PM 30.1839 -81.5156 190° South 96 110 2,400 522 Climbing Jacksonville Center
Fri 06:09:20 PM 30.1608 -81.5111 171° South 87 100 3,000 545 Climbing Jacksonville Center
Fri 06:10:21 PM 30.1358 -81.5092 176° South 84 97 3,500 469 Climbing Jacksonville Center
Fri 06:11:28 PM 30.1086 -81.5072 176° South 89 102 4,000 448 Climbing Jacksonville Center
Fri 06:12:35 PM 30.0814 -81.5053 176° South 85 98 4,500 443 Climbing Jacksonville Center
Fri 06:13:30 PM 30.0606 -81.5053 180° South 89 102 4,900 414 Climbing Jacksonville Center
Fri 06:14:31 PM 30.0314 -81.5083 185° South 90 104 5,300 344 Climbing Jacksonville Center
Fri 06:15:32 PM 30.0064 -81.5061 176° South 95 109 5,600 344 Climbing Jacksonville Center
Fri 06:16:33 PM 29.9833 -81.5042 176° South 87 100 6,000 397 Climbing Jacksonville Center
Fri 06:17:33 PM 29.9561 -81.5022 176° South 87 100 6,400 298 Climbing Jacksonville Center
Fri 06:18:34 PM 29.9311 -81.5025 181° South 95 109 6,600 52 Climbing Jacksonville Center
Fri 06:19:29 PM 29.9039 -81.5006 176° South 106 122 6,500 -47 Descending Jacksonville Center
Fri 06:20:42 PM 29.8686 -81.5011 181° South 104 120 6,500  Level Jacksonville Center
Fri 06:21:12 PM 29.8561 -81.5036 190° South 104 120 6,500  Level Jacksonville Center
Fri 06:22:13 PM 29.8267 -81.4992 173° South 101 116 6,500  Level Jacksonville Center
Fri 06:23:14 PM 29.7994 -81.4972 176° South 101 116 6,500  Level Jacksonville Center
Fri 06:24:08 PM 29.7725 -81.4953 176° South 103 119 6,500  Level Jacksonville Center
Fri 06:25:09 PM 29.7431 -81.4933 177° South 103 119 6,500  Level Jacksonville Center
Fri 06:26:16 PM 29.7097 -81.4914 177° South 104 120 6,500  Level Jacksonville Center
Fri 06:27:17 PM 29.6825 -81.4917 181° South 102 117 6,500  Level Jacksonville Center
Fri 06:28:12 PM 29.6556 -81.4897 176° South 102 117 6,500  Level Jacksonville Center
Fri 06:29:18 PM 29.6242 -81.4903 181° South 104 120 6,500  Level Jacksonville Center
Fri 06:30:25 PM 29.5928 -81.4906 180° South 104 120 6,500 -234 Level Jacksonville Center
Fri 06:31:26 PM 29.5614 -81.4864 173° South 107 123 6,000 -466 Descending Jacksonville Center
Fri 06:32:21 PM 29.5344 -81.4842 176° South 111 128 5,600 -466 Descending Jacksonville Center
Fri 06:33:22 PM 29.5008 -81.4847 181° South 114 131 5,100 -639 Descending Jacksonville Center
Fri 06:34:23 PM 29.4717 -81.4853 181° South 111 128 4,300 -661 Descending Jacksonville Center
Fri 06:35:29 PM 29.4361 -81.4856 180° South 111 128 3,700 -378 Descending Jacksonville Center
Fri 06:36:30 PM 29.4092 -81.4836 176° South 99 114 3,500 -98 Descending Jacksonville Center
Fri 06:37:31 PM 29.3797 -81.4817 177° South 102 117 3,500  Level Jacksonville Center
Fri 06:38:32 PM 29.3486 -81.4822 181° South 109 125 3,500  Level Jacksonville Center
Fri 06:39:33 PM 29.3172 -81.4825 180° South 105 121 3,500  Level Jacksonville Center
Fri 06:40:33 PM 29.2878 -81.4758 169° South 105 121 3,500  Level Jacksonville Center
Fri 06:41:34 PM 29.2586 -81.4764 181° South 107 123 3,500  Level Jacksonville Center
Fri 06:42:35 PM 29.2294 -81.4744 177° South 105 121 3,500  Level Jacksonville Center
Fri 06:43:36 PM 29.2003 -81.4747 180° South 105 121 3,500  Level Jacksonville Center
Fri 06:44:31 PM 29.1753 -81.4728 176° South 105 121 3,500  Level Jacksonville Center
Fri 06:46:53 PM 29.1000 -81.4667 176° South 105 121 3,500  Level Orlando TRACON
Fri 06:47:54 PM 29.0667 -81.4667 180° South 108 124 3,500  Level Orlando TRACON
Fri 06:48:54 PM 29.0500 -81.4667 180° South 107 123 3,500  Level Orlando TRACON
Fri 06:49:54 PM 29.0167 -81.4667 180° South 109 125 3,500  Level Orlando TRACON
Fri 06:50:48 PM 28.9833 -81.4667 180° South 107 123 3,500  Level Orlando TRACON
Fri 06:51:54 PM 28.9500 -81.4667 180° South 107 123 3,500  Level Orlando TRACON
Fri 06:52:54 PM 28.9167 -81.4667 180° South 110 127 3,500 -200 Level Orlando TRACON
Fri 06:53:54 PM 28.9000 -81.4667 180° South 112 129 3,100 -250 Descending Orlando TRACON
Fri 06:54:54 PM 28.8667 -81.4667 180° South 106 122 3,000 -50 Descending Orlando TRACON
Fri 06:55:54 PM 28.8333 -81.4833 204° Southwest 111 128 3,000  Level Orlando TRACON
Fri 06:56:54 PM 28.8000 -81.4833 180° South 105 121 3,000 -53 Level Orlando TRACON
Fri 06:57:48 PM 28.7833 -81.4833 180° South 112 129 2,900  Descending Orlando TRACON
Fri 06:58:49 PM 28.7500 -81.5000 204° Southwest 108 124 3,000  Climbing Orlando TRACON
Fri 06:59:49 PM 28.7167 -81.5000 180° South 106 122 2,900  Descending Orlando TRACON
Fri 07:00:49 PM 28.6833 -81.5000 180° South 105 121 3,000 50 Climbing Orlando TRACON
Fri 07:01:49 PM 28.6667 -81.5167 221° Southwest 108 124 3,000 -144 Level Orlando TRACON
Fri 07:02:54 PM 28.6333 -81.5167 180° South 111 128 2,700 -238 Descending Orlando TRACON
Fri 07:03:55 PM 28.6000 -81.5167 180° South 105 121 2,500 -104 Descending Orlando TRACON
Fri 07:04:49 PM 28.5667 -81.5333 204° Southwest 114 131 2,500  Level Orlando TRACON
Fri 07:05:49 PM 28.5500 -81.5500 221° Southwest 112 129 2,500 -48 Level Orlando TRACON
Fri 07:06:55 PM 28.5167 -81.5667 204° Southwest 110 127 2,400 -48 Descending Orlando TRACON
Fri 07:07:55 PM 28.4833 -81.5833 204° Southwest 110 127 2,400  Level Orlando TRACON
Fri 07:08:55 PM 28.4667 -81.5833 180° South 105 121 2,400 -286 Level Orlando TRACON
Fri 07:10:01 PM 28.4333 -81.5667 156° South 109 125 1,800 -250 Descending Orlando TRACON
Fri 07:10:55 PM 28.4000 -81.5500 156° South 97 112 1,900 53 Climbing Orlando TRACON
Fri 07:11:55 PM 28.3833 -81.5333 139° Southeast 105 121 1,900  Level Orlando TRACON
Fri 07:12:55 PM 28.3667 -81.5000 120° Southeast 104 120 1,900  Level Orlando TRACON

Login

Don't have an account? Register now (free) for customized features, flight alerts, and more!